sensor_id;sensor_type;location;lat;lon;timestamp;P1;durP1;ratioP1;P2;durP2;ratioP2
68275;SDS011;55106;51.438;-0.098;2023-01-16T00:01:38;12.85;;;2.72;;
68275;SDS011;55106;51.438;-0.098;2023-01-16T00:04:03;9.57;;;2.37;;
68275;SDS011;55106;51.438;-0.098;2023-01-16T00:06:29;16.30;;;3.13;;
68275;SDS011;55106;51.438;-0.098;2023-01-16T00:08:54;15.63;;;2.57;;
68275;SDS011;55106;51.438;-0.098;2023-01-16T00:11:20;14.57;;;2.30;;
68275;SDS011;55106;51.438;-0.098;2023-01-16T00:13:45;11.93;;;2.47;;
68275;SDS011;55106;51.438;-0.098;2023-01-16T00:16:10;12.87;;;2.23;;
68275;SDS011;55106;51.438;-0.098;2023-01-16T00:18:36;10.03;;;2.43;;
68275;SDS011;55106;51.438;-0.098;2023-01-16T00:21:01;15.83;;;2.50;;
68275;SDS011;55106;51.438;-0.098;2023-01-16T00:23:27;12.43;;;2.27;;
68275;SDS011;55106;51.438;-0.098;2023-01-16T00:25:52;12.57;;;2.90;;
68275;SDS011;55106;51.438;-0.098;2023-01-16T00:28:17;12.20;;;3.00;;
68275;SDS011;55106;51.438;-0.098;2023-01-16T00:30:44;11.27;;;2.40;;
68275;SDS011;55106;51.438;-0.098;2023-01-16T00:33:09;12.43;;;2.30;;
68275;SDS011;55106;51.438;-0.098;2023-01-16T00:35:35;9.15;;;2.60;;
68275;SDS011;55106;51.438;-0.098;2023-01-16T00:38:00;14.90;;;2.37;;
68275;SDS011;55106;51.438;-0.098;2023-01-16T00:40:26;17.60;;;3.00;;
68275;SDS011;55106;51.438;-0.098;2023-01-16T00:42:52;13.50;;;2.60;;
68275;SDS011;55106;51.438;-0.098;2023-01-16T00:45:17;9.23;;;2.33;;
68275;SDS011;55106;51.438;-0.098;2023-01-16T00:47:43;12.65;;;2.85;;
68275;SDS011;55106;51.438;-0.098;2023-01-16T00:50:08;15.07;;;2.53;;
68275;SDS011;55106;51.438;-0.098;2023-01-16T00:52:34;8.05;;;2.20;;
68275;SDS011;55106;51.438;-0.098;2023-01-16T00:54:59;12.63;;;2.47;;
68275;SDS011;55106;51.438;-0.098;2023-01-16T00:57:25;12.30;;;2.70;;
68275;SDS011;55106;51.438;-0.098;2023-01-16T00:59:50;13.63;;;2.60;;
68275;SDS011;55106;51.438;-0.098;2023-01-16T01:02:16;12.20;;;2.67;;
68275;SDS011;55106;51.438;-0.098;2023-01-16T01:04:41;13.60;;;2.87;;
68275;SDS011;55106;51.438;-0.098;2023-01-16T01:07:07;11.73;;;3.47;;
68275;SDS011;55106;51.438;-0.098;2023-01-16T01:09:32;8.20;;;2.05;;
68275;SDS011;55106;51.438;-0.098;2023-01-16T01:11:58;10.13;;;2.53;;
68275;SDS011;55106;51.438;-0.098;2023-01-16T01:14:24;16.20;;;2.95;;
68275;SDS011;55106;51.438;-0.098;2023-01-16T01:16:50;9.27;;;2.63;;
68275;SDS011;55106;51.438;-0.098;2023-01-16T01:19:16;15.27;;;3.00;;
68275;SDS011;55106;51.438;-0.098;2023-01-16T01:21:41;11.63;;;2.30;;
68275;SDS011;55106;51.438;-0.098;2023-01-16T01:24:06;10.27;;;2.83;;
68275;SDS011;55106;51.438;-0.098;2023-01-16T01:26:32;9.27;;;2.97;;
68275;SDS011;55106;51.438;-0.098;2023-01-16T01:28:57;11.95;;;3.00;;
68275;SDS011;55106;51.438;-0.098;2023-01-16T01:31:23;10.77;;;2.93;;
68275;SDS011;55106;51.438;-0.098;2023-01-16T01:33:48;12.93;;;3.47;;
68275;SDS011;55106;51.438;-0.098;2023-01-16T01:36:14;12.87;;;3.03;;
68275;SDS011;55106;51.438;-0.098;2023-01-16T01:38:39;14.80;;;3.37;;
68275;SDS011;55106;51.438;-0.098;2023-01-16T01:41:05;13.68;;;2.78;;
68275;SDS011;55106;51.438;-0.098;2023-01-16T01:43:41;10.23;;;2.77;;
68275;SDS011;55106;51.438;-0.098;2023-01-16T01:48:51;13.57;;;3.22;;
68275;SDS011;55106;51.438;-0.098;2023-01-16T01:51:24;11.23;;;2.80;;
68275;SDS011;55106;51.438;-0.098;2023-01-16T01:53:59;16.85;;;3.20;;
68275;SDS011;55106;51.438;-0.098;2023-01-16T01:56:42;7.23;;;2.57;;
68275;SDS011;55106;51.438;-0.098;2023-01-16T01:59:31;10.48;;;2.60;;
68275;SDS011;55106;51.438;-0.098;2023-01-16T02:02:00;15.20;;;2.70;;
68275;SDS011;55106;51.438;-0.098;2023-01-16T02:04:28;10.27;;;3.10;;
68275;SDS011;55106;51.438;-0.098;2023-01-16T02:06:57;11.25;;;2.38;;
68275;SDS011;55106;51.438;-0.098;2023-01-16T02:09:26;10.97;;;2.30;;
68275;SDS011;55106;51.438;-0.098;2023-01-16T02:12:00;11.55;;;3.15;;
68275;SDS011;55106;51.438;-0.098;2023-01-16T02:14:30;15.23;;;2.95;;
68275;SDS011;55106;51.438;-0.098;2023-01-16T02:17:00;12.73;;;2.80;;
68275;SDS011;55106;51.438;-0.098;2023-01-16T02:22:30;13.27;;;3.20;;
68275;SDS011;55106;51.438;-0.098;2023-01-16T02:28:10;7.97;;;2.30;;
68275;SDS011;55106;51.438;-0.098;2023-01-16T02:31:15;10.95;;;2.38;;
68275;SDS011;55106;51.438;-0.098;2023-01-16T02:47:25;10.80;;;2.50;;
68275;SDS011;55106;51.438;-0.098;2023-01-16T02:50:18;11.50;;;2.00;;
68275;SDS011;55106;51.438;-0.098;2023-01-16T02:52:57;8.15;;;2.08;;
68275;SDS011;55106;51.438;-0.098;2023-01-16T02:58:02;9.10;;;2.30;;
68275;SDS011;55106;51.438;-0.098;2023-01-16T03:00:30;12.37;;;3.10;;
68275;SDS011;55106;51.438;-0.098;2023-01-16T03:02:58;11.18;;;2.55;;
68275;SDS011;55106;51.438;-0.098;2023-01-16T03:05:24;5.72;;;1.60;;
68275;SDS011;55106;51.438;-0.098;2023-01-16T03:07:59;6.93;;;1.80;;
68275;SDS011;55106;51.438;-0.098;2023-01-16T03:10:35;5.00;;;1.60;;
68275;SDS011;55106;51.438;-0.098;2023-01-16T03:15:57;5.68;;;1.80;;
68275;SDS011;55106;51.438;-0.098;2023-01-16T03:23:58;4.47;;;1.17;;
68275;SDS011;55106;51.438;-0.098;2023-01-16T03:26:32;6.80;;;1.20;;
68275;SDS011;55106;51.438;-0.098;2023-01-16T03:31:48;4.55;;;1.30;;
68275;SDS011;55106;51.438;-0.098;2023-01-16T03:39:29;3.17;;;1.00;;
68275;SDS011;55106;51.438;-0.098;2023-01-16T03:42:03;3.15;;;1.20;;
68275;SDS011;55106;51.438;-0.098;2023-01-16T03:44:36;3.40;;;1.20;;
68275;SDS011;55106;51.438;-0.098;2023-01-16T03:47:06;4.22;;;1.23;;
68275;SDS011;55106;51.438;-0.098;2023-01-16T03:49:39;3.55;;;1.30;;
68275;SDS011;55106;51.438;-0.098;2023-01-16T03:52:08;2.60;;;0.90;;
68275;SDS011;55106;51.438;-0.098;2023-01-16T03:54:48;3.63;;;1.20;;
68275;SDS011;55106;51.438;-0.098;2023-01-16T04:00:12;3.35;;;1.10;;
68275;SDS011;55106;51.438;-0.098;2023-01-16T04:02:54;3.25;;;1.13;;
68275;SDS011;55106;51.438;-0.098;2023-01-16T04:05:34;2.90;;;0.90;;
68275;SDS011;55106;51.438;-0.098;2023-01-16T04:08:14;2.13;;;0.82;;
68275;SDS011;55106;51.438;-0.098;2023-01-16T04:10:42;3.15;;;1.05;;
68275;SDS011;55106;51.438;-0.098;2023-01-16T04:13:11;2.47;;;0.80;;
68275;SDS011;55106;51.438;-0.098;2023-01-16T04:15:48;2.63;;;1.00;;
68275;SDS011;55106;51.438;-0.098;2023-01-16T04:18:16;2.37;;;0.90;;
68275;SDS011;55106;51.438;-0.098;2023-01-16T04:20:44;2.97;;;0.85;;
68275;SDS011;55106;51.438;-0.098;2023-01-16T04:23:12;2.53;;;1.00;;
68275;SDS011;55106;51.438;-0.098;2023-01-16T04:25:38;2.38;;;0.90;;
68275;SDS011;55106;51.438;-0.098;2023-01-16T04:28:04;4.47;;;1.52;;
68275;SDS011;55106;51.438;-0.098;2023-01-16T04:30:29;2.97;;;0.97;;
68275;SDS011;55106;51.438;-0.098;2023-01-16T04:32:55;4.20;;;0.90;;
68275;SDS011;55106;51.438;-0.098;2023-01-16T04:35:20;4.67;;;1.03;;
68275;SDS011;55106;51.438;-0.098;2023-01-16T04:37:46;3.88;;;1.00;;
68275;SDS011;55106;51.438;-0.098;2023-01-16T04:40:11;2.67;;;1.10;;
68275;SDS011;55106;51.438;-0.098;2023-01-16T04:42:37;6.50;;;1.40;;
68275;SDS011;55106;51.438;-0.098;2023-01-16T04:45:03;3.57;;;1.10;;
68275;SDS011;55106;51.438;-0.098;2023-01-16T04:47:28;3.30;;;1.00;;
68275;SDS011;55106;51.438;-0.098;2023-01-16T04:49:54;3.58;;;1.20;;
68275;SDS011;55106;51.438;-0.098;2023-01-16T04:52:19;3.50;;;0.90;;
68275;SDS011;55106;51.438;-0.098;2023-01-16T04:54:45;3.20;;;1.00;;
68275;SDS011;55106;51.438;-0.098;2023-01-16T04:57:10;2.60;;;0.90;;
68275;SDS011;55106;51.438;-0.098;2023-01-16T04:59:35;4.50;;;1.13;;
68275;SDS011;55106;51.438;-0.098;2023-01-16T05:02:01;3.08;;;1.33;;
68275;SDS011;55106;51.438;-0.098;2023-01-16T05:04:26;2.47;;;0.87;;
68275;SDS011;55106;51.438;-0.098;2023-01-16T05:06:51;2.80;;;0.97;;
68275;SDS011;55106;51.438;-0.098;2023-01-16T05:09:17;4.33;;;1.10;;
68275;SDS011;55106;51.438;-0.098;2023-01-16T05:11:42;3.47;;;1.10;;
68275;SDS011;55106;51.438;-0.098;2023-01-16T05:14:08;3.95;;;1.10;;
68275;SDS011;55106;51.438;-0.098;2023-01-16T05:16:35;4.00;;;1.13;;
68275;SDS011;55106;51.438;-0.098;2023-01-16T05:19:01;3.60;;;1.30;;
68275;SDS011;55106;51.438;-0.098;2023-01-16T05:21:27;3.40;;;1.20;;
68275;SDS011;55106;51.438;-0.098;2023-01-16T05:23:53;4.40;;;1.10;;
68275;SDS011;55106;51.438;-0.098;2023-01-16T05:26:18;3.90;;;1.35;;
68275;SDS011;55106;51.438;-0.098;2023-01-16T05:28:44;3.10;;;1.10;;
68275;SDS011;55106;51.438;-0.098;2023-01-16T05:31:10;4.43;;;1.60;;
68275;SDS011;55106;51.438;-0.098;2023-01-16T05:33:35;4.13;;;1.52;;
68275;SDS011;55106;51.438;-0.098;2023-01-16T05:36:01;5.00;;;1.67;;
68275;SDS011;55106;51.438;-0.098;2023-01-16T05:38:26;4.40;;;1.73;;
68275;SDS011;55106;51.438;-0.098;2023-01-16T05:40:52;3.57;;;1.40;;
68275;SDS011;55106;51.438;-0.098;2023-01-16T05:43:18;3.88;;;1.45;;
68275;SDS011;55106;51.438;-0.098;2023-01-16T05:45:44;5.77;;;1.77;;
68275;SDS011;55106;51.438;-0.098;2023-01-16T05:48:09;5.57;;;1.70;;
68275;SDS011;55106;51.438;-0.098;2023-01-16T05:50:34;4.03;;;1.20;;
68275;SDS011;55106;51.438;-0.098;2023-01-16T05:53:00;6.87;;;1.70;;
68275;SDS011;55106;51.438;-0.098;2023-01-16T05:55:25;6.80;;;1.83;;
68275;SDS011;55106;51.438;-0.098;2023-01-16T05:57:51;8.10;;;2.00;;
68275;SDS011;55106;51.438;-0.098;2023-01-16T06:00:16;6.68;;;1.50;;
68275;SDS011;55106;51.438;-0.098;2023-01-16T06:02:42;5.47;;;1.50;;
68275;SDS011;55106;51.438;-0.098;2023-01-16T06:05:11;5.80;;;1.38;;
68275;SDS011;55106;51.438;-0.098;2023-01-16T06:07:37;4.35;;;1.30;;
68275;SDS011;55106;51.438;-0.098;2023-01-16T06:10:02;5.87;;;1.50;;
68275;SDS011;55106;51.438;-0.098;2023-01-16T06:12:28;9.02;;;1.73;;
68275;SDS011;55106;51.438;-0.098;2023-01-16T06:14:54;4.30;;;1.52;;
68275;SDS011;55106;51.438;-0.098;2023-01-16T06:17:19;6.43;;;1.43;;
68275;SDS011;55106;51.438;-0.098;2023-01-16T06:19:45;7.17;;;1.80;;
68275;SDS011;55106;51.438;-0.098;2023-01-16T06:22:11;8.30;;;1.60;;
68275;SDS011;55106;51.438;-0.098;2023-01-16T06:24:37;4.30;;;1.77;;
68275;SDS011;55106;51.438;-0.098;2023-01-16T06:27:03;3.50;;;1.23;;
68275;SDS011;55106;51.438;-0.098;2023-01-16T06:29:29;4.97;;;1.73;;
68275;SDS011;55106;51.438;-0.098;2023-01-16T06:31:54;6.57;;;1.50;;
68275;SDS011;55106;51.438;-0.098;2023-01-16T06:34:19;4.73;;;1.37;;
68275;SDS011;55106;51.438;-0.098;2023-01-16T06:36:45;6.23;;;1.70;;
68275;SDS011;55106;51.438;-0.098;2023-01-16T06:39:12;4.00;;;1.40;;
68275;SDS011;55106;51.438;-0.098;2023-01-16T06:41:38;4.05;;;1.33;;
68275;SDS011;55106;51.438;-0.098;2023-01-16T06:44:04;5.33;;;1.70;;
68275;SDS011;55106;51.438;-0.098;2023-01-16T06:46:29;3.47;;;1.27;;
68275;SDS011;55106;51.438;-0.098;2023-01-16T06:48:55;5.30;;;1.50;;
68275;SDS011;55106;51.438;-0.098;2023-01-16T06:51:20;5.57;;;1.67;;
68275;SDS011;55106;51.438;-0.098;2023-01-16T06:53:46;5.50;;;1.43;;
68275;SDS011;55106;51.438;-0.098;2023-01-16T06:56:11;7.00;;;1.73;;
68275;SDS011;55106;51.438;-0.098;2023-01-16T06:58:37;6.57;;;1.80;;
68275;SDS011;55106;51.438;-0.098;2023-01-16T07:01:02;4.83;;;1.57;;
68275;SDS011;55106;51.438;-0.098;2023-01-16T07:03:28;5.97;;;1.80;;
68275;SDS011;55106;51.438;-0.098;2023-01-16T07:05:53;5.00;;;1.60;;
68275;SDS011;55106;51.438;-0.098;2023-01-16T07:08:18;8.13;;;1.77;;
68275;SDS011;55106;51.438;-0.098;2023-01-16T07:10:44;7.13;;;1.73;;
68275;SDS011;55106;51.438;-0.098;2023-01-16T07:13:09;7.10;;;2.10;;
68275;SDS011;55106;51.438;-0.098;2023-01-16T07:15:36;5.10;;;1.73;;
68275;SDS011;55106;51.438;-0.098;2023-01-16T07:18:20;6.43;;;1.85;;
68275;SDS011;55106;51.438;-0.098;2023-01-16T07:21:05;6.82;;;2.25;;
68275;SDS011;55106;51.438;-0.098;2023-01-16T07:23:54;6.25;;;2.53;;
68275;SDS011;55106;51.438;-0.098;2023-01-16T07:26:24;6.65;;;2.75;;
68275;SDS011;55106;51.438;-0.098;2023-01-16T07:28:50;10.70;;;2.90;;
68275;SDS011;55106;51.438;-0.098;2023-01-16T07:31:17;10.52;;;3.45;;
68275;SDS011;55106;51.438;-0.098;2023-01-16T07:33:43;8.40;;;3.97;;
68275;SDS011;55106;51.438;-0.098;2023-01-16T07:36:09;11.67;;;4.47;;
68275;SDS011;55106;51.438;-0.098;2023-01-16T07:38:34;15.07;;;4.30;;
68275;SDS011;55106;51.438;-0.098;2023-01-16T07:40:59;10.80;;;4.80;;
68275;SDS011;55106;51.438;-0.098;2023-01-16T07:43:25;16.23;;;4.80;;
68275;SDS011;55106;51.438;-0.098;2023-01-16T07:45:50;11.03;;;4.70;;
68275;SDS011;55106;51.438;-0.098;2023-01-16T07:48:19;12.25;;;5.13;;
68275;SDS011;55106;51.438;-0.098;2023-01-16T07:50:49;13.23;;;4.90;;
68275;SDS011;55106;51.438;-0.098;2023-01-16T07:53:18;12.50;;;4.60;;
68275;SDS011;55106;51.438;-0.098;2023-01-16T07:55:50;14.60;;;4.30;;
68275;SDS011;55106;51.438;-0.098;2023-01-16T07:58:17;12.40;;;3.58;;
68275;SDS011;55106;51.438;-0.098;2023-01-16T08:00:42;12.77;;;3.73;;
68275;SDS011;55106;51.438;-0.098;2023-01-16T08:03:08;12.00;;;3.35;;
68275;SDS011;55106;51.438;-0.098;2023-01-16T08:05:34;11.45;;;2.70;;
68275;SDS011;55106;51.438;-0.098;2023-01-16T08:08:00;14.17;;;3.50;;
68275;SDS011;55106;51.438;-0.098;2023-01-16T08:10:25;10.00;;;3.37;;
68275;SDS011;55106;51.438;-0.098;2023-01-16T08:12:51;13.40;;;3.08;;
68275;SDS011;55106;51.438;-0.098;2023-01-16T08:15:16;11.60;;;3.20;;
68275;SDS011;55106;51.438;-0.098;2023-01-16T08:17:41;8.53;;;3.30;;
68275;SDS011;55106;51.438;-0.098;2023-01-16T08:20:07;8.87;;;3.20;;
68275;SDS011;55106;51.438;-0.098;2023-01-16T08:22:33;11.38;;;3.65;;
68275;SDS011;55106;51.438;-0.098;2023-01-16T08:24:59;14.23;;;3.27;;
68275;SDS011;55106;51.438;-0.098;2023-01-16T08:27:24;13.03;;;3.90;;
68275;SDS011;55106;51.438;-0.098;2023-01-16T08:29:49;9.23;;;3.23;;
68275;SDS011;55106;51.438;-0.098;2023-01-16T08:32:15;12.27;;;3.67;;
68275;SDS011;55106;51.438;-0.098;2023-01-16T08:34:41;12.40;;;3.73;;
68275;SDS011;55106;51.438;-0.098;2023-01-16T08:37:07;17.75;;;5.25;;
68275;SDS011;55106;51.438;-0.098;2023-01-16T08:39:35;12.17;;;3.80;;
68275;SDS011;55106;51.438;-0.098;2023-01-16T08:42:03;12.55;;;3.70;;
68275;SDS011;55106;51.438;-0.098;2023-01-16T08:44:47;14.95;;;3.72;;
68275;SDS011;55106;51.438;-0.098;2023-01-16T08:47:31;15.35;;;4.80;;
68275;SDS011;55106;51.438;-0.098;2023-01-16T08:50:18;14.85;;;4.72;;
68275;SDS011;55106;51.438;-0.098;2023-01-16T08:53:03;20.10;;;5.43;;
68275;SDS011;55106;51.438;-0.098;2023-01-16T08:55:29;16.15;;;6.38;;
68275;SDS011;55106;51.438;-0.098;2023-01-16T08:57:55;14.88;;;6.93;;
68275;SDS011;55106;51.438;-0.098;2023-01-16T09:00:24;13.48;;;6.45;;
68275;SDS011;55106;51.438;-0.098;2023-01-16T09:02:50;16.30;;;5.97;;
68275;SDS011;55106;51.438;-0.098;2023-01-16T09:05:17;15.05;;;6.93;;
68275;SDS011;55106;51.438;-0.098;2023-01-16T09:07:42;15.77;;;6.90;;
68275;SDS011;55106;51.438;-0.098;2023-01-16T09:10:08;15.48;;;6.82;;
68275;SDS011;55106;51.438;-0.098;2023-01-16T09:12:34;15.60;;;6.57;;
68275;SDS011;55106;51.438;-0.098;2023-01-16T09:15:18;18.17;;;6.47;;
68275;SDS011;55106;51.438;-0.098;2023-01-16T09:17:43;15.73;;;5.53;;
68275;SDS011;55106;51.438;-0.098;2023-01-16T09:20:08;17.37;;;5.83;;
68275;SDS011;55106;51.438;-0.098;2023-01-16T09:22:34;13.02;;;4.85;;
68275;SDS011;55106;51.438;-0.098;2023-01-16T09:25:00;13.03;;;5.30;;
68275;SDS011;55106;51.438;-0.098;2023-01-16T09:27:25;18.58;;;5.40;;
68275;SDS011;55106;51.438;-0.098;2023-01-16T09:29:51;20.03;;;5.93;;
68275;SDS011;55106;51.438;-0.098;2023-01-16T09:32:17;13.45;;;5.13;;
68275;SDS011;55106;51.438;-0.098;2023-01-16T09:34:44;12.68;;;4.82;;
68275;SDS011;55106;51.438;-0.098;2023-01-16T09:37:09;11.20;;;4.78;;
68275;SDS011;55106;51.438;-0.098;2023-01-16T09:39:35;12.30;;;5.37;;
68275;SDS011;55106;51.438;-0.098;2023-01-16T09:45:13;12.45;;;5.93;;
68275;SDS011;55106;51.438;-0.098;2023-01-16T09:47:42;13.65;;;5.38;;
68275;SDS011;55106;51.438;-0.098;2023-01-16T09:50:13;11.57;;;4.60;;
68275;SDS011;55106;51.438;-0.098;2023-01-16T09:52:45;15.35;;;5.38;;
68275;SDS011;55106;51.438;-0.098;2023-01-16T09:55:41;17.80;;;6.03;;
68275;SDS011;55106;51.438;-0.098;2023-01-16T09:58:29;13.90;;;6.00;;
68275;SDS011;55106;51.438;-0.098;2023-01-16T10:01:12;13.27;;;5.57;;
68275;SDS011;55106;51.438;-0.098;2023-01-16T10:03:41;13.73;;;5.50;;
68275;SDS011;55106;51.438;-0.098;2023-01-16T10:06:20;15.45;;;6.28;;
68275;SDS011;55106;51.438;-0.098;2023-01-16T10:11:28;25.17;;;6.88;;
68275;SDS011;55106;51.438;-0.098;2023-01-16T10:14:10;16.15;;;6.50;;
68275;SDS011;55106;51.438;-0.098;2023-01-16T10:31:14;16.57;;;6.37;;
68275;SDS011;55106;51.438;-0.098;2023-01-16T10:33:44;13.88;;;5.43;;
68275;SDS011;55106;51.438;-0.098;2023-01-16T10:36:14;18.00;;;7.13;;
68275;SDS011;55106;51.438;-0.098;2023-01-16T10:38:51;15.88;;;7.00;;
68275;SDS011;55106;51.438;-0.098;2023-01-16T10:41:23;18.40;;;6.72;;
68275;SDS011;55106;51.438;-0.098;2023-01-16T10:47:50;15.30;;;6.20;;
68275;SDS011;55106;51.438;-0.098;2023-01-16T10:50:35;14.73;;;5.85;;
68275;SDS011;55106;51.438;-0.098;2023-01-16T10:53:01;12.88;;;5.65;;
68275;SDS011;55106;51.438;-0.098;2023-01-16T10:55:30;14.23;;;5.65;;
68275;SDS011;55106;51.438;-0.098;2023-01-16T10:57:58;12.17;;;4.67;;
68275;SDS011;55106;51.438;-0.098;2023-01-16T11:00:29;13.05;;;5.57;;
68275;SDS011;55106;51.438;-0.098;2023-01-16T11:03:00;12.35;;;5.80;;
68275;SDS011;55106;51.438;-0.098;2023-01-16T11:05:34;13.98;;;6.13;;
68275;SDS011;55106;51.438;-0.098;2023-01-16T11:08:05;17.67;;;6.22;;
68275;SDS011;55106;51.438;-0.098;2023-01-16T11:10:32;16.63;;;6.67;;
68275;SDS011;55106;51.438;-0.098;2023-01-16T11:12:58;17.15;;;6.22;;
68275;SDS011;55106;51.438;-0.098;2023-01-16T11:15:59;16.80;;;6.75;;
68275;SDS011;55106;51.438;-0.098;2023-01-16T11:18:51;16.65;;;6.50;;
68275;SDS011;55106;51.438;-0.098;2023-01-16T11:21:27;16.27;;;5.77;;
68275;SDS011;55106;51.438;-0.098;2023-01-16T11:26:38;14.95;;;6.45;;
68275;SDS011;55106;51.438;-0.098;2023-01-16T11:29:04;14.75;;;6.30;;
68275;SDS011;55106;51.438;-0.098;2023-01-16T11:31:30;16.47;;;6.40;;
68275;SDS011;55106;51.438;-0.098;2023-01-16T11:33:59;14.68;;;6.35;;
68275;SDS011;55106;51.438;-0.098;2023-01-16T11:36:29;14.85;;;6.28;;
68275;SDS011;55106;51.438;-0.098;2023-01-16T11:38:57;13.98;;;5.63;;
68275;SDS011;55106;51.438;-0.098;2023-01-16T11:41:24;15.13;;;6.47;;
68275;SDS011;55106;51.438;-0.098;2023-01-16T11:47:01;14.55;;;5.90;;
68275;SDS011;55106;51.438;-0.098;2023-01-16T11:49:49;15.83;;;5.80;;
68275;SDS011;55106;51.438;-0.098;2023-01-16T11:52:15;17.25;;;7.82;;
68275;SDS011;55106;51.438;-0.098;2023-01-16T11:54:55;16.08;;;7.13;;
68275;SDS011;55106;51.438;-0.098;2023-01-16T11:57:28;18.70;;;6.63;;
68275;SDS011;55106;51.438;-0.098;2023-01-16T12:13:58;19.05;;;7.00;;
68275;SDS011;55106;51.438;-0.098;2023-01-16T12:28:13;14.73;;;6.40;;
68275;SDS011;55106;51.438;-0.098;2023-01-16T12:33:46;19.35;;;7.10;;
68275;SDS011;55106;51.438;-0.098;2023-01-16T12:39:49;17.52;;;7.07;;
68275;SDS011;55106;51.438;-0.098;2023-01-16T12:45:44;12.47;;;5.40;;
68275;SDS011;55106;51.438;-0.098;2023-01-16T13:02:55;11.45;;;4.75;;
68275;SDS011;55106;51.438;-0.098;2023-01-16T13:05:18;12.00;;;4.63;;
68275;SDS011;55106;51.438;-0.098;2023-01-16T13:07:51;11.55;;;4.68;;
68275;SDS011;55106;51.438;-0.098;2023-01-16T13:10:22;11.63;;;4.40;;
68275;SDS011;55106;51.438;-0.098;2023-01-16T13:13:15;11.90;;;4.13;;
68275;SDS011;55106;51.438;-0.098;2023-01-16T13:15:49;10.40;;;4.13;;
68275;SDS011;55106;51.438;-0.098;2023-01-16T13:18:46;11.50;;;4.10;;
68275;SDS011;55106;51.438;-0.098;2023-01-16T13:21:20;12.05;;;5.32;;
68275;SDS011;55106;51.438;-0.098;2023-01-16T13:23:54;12.95;;;4.38;;
68275;SDS011;55106;51.438;-0.098;2023-01-16T13:26:24;13.20;;;4.82;;
68275;SDS011;55106;51.438;-0.098;2023-01-16T13:31:31;11.53;;;4.70;;
68275;SDS011;55106;51.438;-0.098;2023-01-16T13:34:00;12.48;;;4.75;;
68275;SDS011;55106;51.438;-0.098;2023-01-16T13:42:08;10.23;;;4.20;;
68275;SDS011;55106;51.438;-0.098;2023-01-16T13:44:39;10.97;;;3.93;;
68275;SDS011;55106;51.438;-0.098;2023-01-16T13:47:30;13.32;;;5.38;;
68275;SDS011;55106;51.438;-0.098;2023-01-16T13:50:03;14.10;;;4.60;;
68275;SDS011;55106;51.438;-0.098;2023-01-16T13:52:42;10.65;;;5.38;;
68275;SDS011;55106;51.438;-0.098;2023-01-16T14:00:44;16.67;;;6.38;;
68275;SDS011;55106;51.438;-0.098;2023-01-16T14:03:19;13.88;;;6.30;;
68275;SDS011;55106;51.438;-0.098;2023-01-16T14:05:50;14.02;;;6.28;;
68275;SDS011;55106;51.438;-0.098;2023-01-16T14:08:52;15.50;;;6.30;;
68275;SDS011;55106;51.438;-0.098;2023-01-16T14:14:49;13.55;;;6.47;;
68275;SDS011;55106;51.438;-0.098;2023-01-16T14:20:43;12.95;;;5.57;;
68275;SDS011;55106;51.438;-0.098;2023-01-16T14:23:18;13.27;;;5.63;;
68275;SDS011;55106;51.438;-0.098;2023-01-16T14:26:03;10.47;;;4.30;;
68275;SDS011;55106;51.438;-0.098;2023-01-16T14:28:30;11.93;;;4.80;;
68275;SDS011;55106;51.438;-0.098;2023-01-16T14:30:58;11.07;;;4.50;;
68275;SDS011;55106;51.438;-0.098;2023-01-16T14:33:24;12.30;;;4.82;;
68275;SDS011;55106;51.438;-0.098;2023-01-16T14:35:51;12.32;;;4.93;;
68275;SDS011;55106;51.438;-0.098;2023-01-16T14:38:20;10.07;;;5.20;;
68275;SDS011;55106;51.438;-0.098;2023-01-16T14:40:53;11.75;;;4.63;;
68275;SDS011;55106;51.438;-0.098;2023-01-16T14:43:42;9.43;;;4.15;;
68275;SDS011;55106;51.438;-0.098;2023-01-16T14:47:07;8.93;;;3.55;;
68275;SDS011;55106;51.438;-0.098;2023-01-16T14:50:15;8.23;;;3.55;;
68275;SDS011;55106;51.438;-0.098;2023-01-16T14:55:52;8.38;;;3.00;;
68275;SDS011;55106;51.438;-0.098;2023-01-16T14:58:48;8.25;;;3.20;;
68275;SDS011;55106;51.438;-0.098;2023-01-16T15:01:29;5.65;;;2.47;;
68275;SDS011;55106;51.438;-0.098;2023-01-16T15:04:22;5.10;;;2.38;;
68275;SDS011;55106;51.438;-0.098;2023-01-16T15:06:50;5.93;;;2.60;;
68275;SDS011;55106;51.438;-0.098;2023-01-16T15:09:20;6.35;;;2.42;;
68275;SDS011;55106;51.438;-0.098;2023-01-16T15:12:08;5.97;;;2.40;;
68275;SDS011;55106;51.438;-0.098;2023-01-16T15:14:36;6.45;;;2.40;;
68275;SDS011;55106;51.438;-0.098;2023-01-16T15:20:02;7.25;;;2.40;;
68275;SDS011;55106;51.438;-0.098;2023-01-16T15:23:04;7.28;;;3.00;;
68275;SDS011;55106;51.438;-0.098;2023-01-16T15:36:38;8.45;;;3.58;;
68275;SDS011;55106;51.438;-0.098;2023-01-16T15:39:12;7.15;;;3.92;;
68275;SDS011;55106;51.438;-0.098;2023-01-16T15:41:44;7.75;;;3.10;;
68275;SDS011;55106;51.438;-0.098;2023-01-16T15:44:30;5.30;;;2.40;;
68275;SDS011;55106;51.438;-0.098;2023-01-16T15:52:28;5.65;;;2.80;;
68275;SDS011;55106;51.438;-0.098;2023-01-16T15:54:54;6.30;;;2.58;;
68275;SDS011;55106;51.438;-0.098;2023-01-16T15:57:20;5.97;;;2.80;;
68275;SDS011;55106;51.438;-0.098;2023-01-16T15:59:50;5.47;;;2.30;;
68275;SDS011;55106;51.438;-0.098;2023-01-16T16:02:24;5.93;;;2.80;;
68275;SDS011;55106;51.438;-0.098;2023-01-16T16:04:53;5.55;;;2.60;;
68275;SDS011;55106;51.438;-0.098;2023-01-16T16:07:22;5.03;;;2.20;;
68275;SDS011;55106;51.438;-0.098;2023-01-16T16:09:49;5.68;;;2.45;;
68275;SDS011;55106;51.438;-0.098;2023-01-16T16:12:18;6.47;;;2.30;;
68275;SDS011;55106;51.438;-0.098;2023-01-16T16:14:45;4.65;;;2.15;;
68275;SDS011;55106;51.438;-0.098;2023-01-16T16:17:29;4.70;;;2.20;;
68275;SDS011;55106;51.438;-0.098;2023-01-16T16:20:34;6.43;;;2.27;;
68275;SDS011;55106;51.438;-0.098;2023-01-16T16:23:14;4.75;;;2.20;;
68275;SDS011;55106;51.438;-0.098;2023-01-16T16:28:20;5.90;;;1.83;;
68275;SDS011;55106;51.438;-0.098;2023-01-16T16:33:36;3.97;;;1.57;;
68275;SDS011;55106;51.438;-0.098;2023-01-16T16:36:02;3.88;;;1.42;;
68275;SDS011;55106;51.438;-0.098;2023-01-16T16:48:58;4.25;;;1.55;;
68275;SDS011;55106;51.438;-0.098;2023-01-16T16:51:34;5.07;;;1.80;;
68275;SDS011;55106;51.438;-0.098;2023-01-16T16:54:09;5.95;;;1.90;;
68275;SDS011;55106;51.438;-0.098;2023-01-16T16:56:38;4.22;;;1.63;;
68275;SDS011;55106;51.438;-0.098;2023-01-16T16:59:16;6.82;;;2.17;;
68275;SDS011;55106;51.438;-0.098;2023-01-16T17:01:45;4.37;;;1.63;;
68275;SDS011;55106;51.438;-0.098;2023-01-16T17:04:15;5.57;;;2.30;;
68275;SDS011;55106;51.438;-0.098;2023-01-16T17:06:42;5.20;;;2.20;;
68275;SDS011;55106;51.438;-0.098;2023-01-16T17:09:10;5.38;;;2.13;;
68275;SDS011;55106;51.438;-0.098;2023-01-16T17:11:36;5.60;;;2.33;;
68275;SDS011;55106;51.438;-0.098;2023-01-16T17:14:02;4.63;;;2.03;;
68275;SDS011;55106;51.438;-0.098;2023-01-16T17:16:27;6.77;;;1.90;;
68275;SDS011;55106;51.438;-0.098;2023-01-16T17:21:44;8.00;;;2.50;;
68275;SDS011;55106;51.438;-0.098;2023-01-16T17:24:13;5.72;;;2.50;;
68275;SDS011;55106;51.438;-0.098;2023-01-16T17:26:40;7.68;;;3.10;;
68275;SDS011;55106;51.438;-0.098;2023-01-16T17:29:06;6.90;;;2.70;;
68275;SDS011;55106;51.438;-0.098;2023-01-16T17:31:32;5.90;;;2.85;;
68275;SDS011;55106;51.438;-0.098;2023-01-16T17:33:59;6.47;;;3.13;;
68275;SDS011;55106;51.438;-0.098;2023-01-16T17:36:25;5.80;;;3.00;;
68275;SDS011;55106;51.438;-0.098;2023-01-16T17:38:52;8.70;;;2.90;;
68275;SDS011;55106;51.438;-0.098;2023-01-16T17:41:22;6.32;;;3.25;;
68275;SDS011;55106;51.438;-0.098;2023-01-16T17:43:49;6.70;;;3.30;;
68275;SDS011;55106;51.438;-0.098;2023-01-16T17:46:36;7.47;;;3.15;;
68275;SDS011;55106;51.438;-0.098;2023-01-16T17:49:01;7.90;;;3.00;;
68275;SDS011;55106;51.438;-0.098;2023-01-16T17:51:26;6.60;;;3.00;;
68275;SDS011;55106;51.438;-0.098;2023-01-16T17:53:52;8.27;;;3.37;;